createdAt,value
2017-06-05T00:00:03.170Z,1003.84
2017-06-05T00:10:03.183Z,1003.82
2017-06-05T00:20:03.375Z,1003.86
2017-06-05T00:30:02.822Z,1003.82
2017-06-05T00:40:03.304Z,1003.82
2017-06-05T00:50:02.452Z,1003.76
2017-06-05T01:00:02.938Z,1003.75
2017-06-05T01:10:02.831Z,1003.64
2017-06-05T01:20:02.762Z,1003.66
2017-06-05T01:30:03.194Z,1003.71
2017-06-05T01:40:02.746Z,1003.8
2017-06-05T01:50:02.779Z,1003.78
2017-06-05T02:00:03.258Z,1003.69
2017-06-05T02:10:03.128Z,1003.88
2017-06-05T02:20:02.981Z,1003.8
2017-06-05T02:30:02.450Z,1003.82
2017-06-05T02:40:03.110Z,1003.87
2017-06-05T02:50:03.186Z,1003.98
2017-06-05T03:00:02.681Z,1003.87
2017-06-05T03:10:02.473Z,1003.87
2017-06-05T03:20:02.711Z,1003.76
2017-06-05T03:30:03.167Z,1003.8
2017-06-05T03:40:03.211Z,1003.69
2017-06-05T03:50:02.512Z,1003.75
2017-06-05T04:00:03.001Z,1003.67
2017-06-05T04:10:02.911Z,1003.77
2017-06-05T04:20:02.880Z,1003.9
2017-06-05T04:30:03.340Z,1003.9
2017-06-05T04:40:03.281Z,1004.01
2017-06-05T04:50:03.230Z,1003.97
2017-06-05T05:00:02.707Z,1003.81
2017-06-05T05:10:03.177Z,1003.9
2017-06-05T05:20:02.745Z,1003.95
2017-06-05T05:30:03.191Z,1003.92
2017-06-05T05:40:03.116Z,1003.95
2017-06-05T05:50:02.761Z,1003.84
2017-06-05T06:00:03.220Z,1003.99
2017-06-05T06:10:02.932Z,1003.95
2017-06-05T06:20:03.197Z,1004.07
2017-06-05T06:30:02.670Z,1004.07
2017-06-05T06:40:03.053Z,1003.9
2017-06-05T06:50:03.262Z,1003.87
2017-06-05T07:00:02.763Z,1003.67
2017-06-05T07:10:03.249Z,1003.59
2017-06-05T07:20:02.460Z,1003.51
2017-06-05T07:30:02.887Z,1003.46
2017-06-05T07:40:02.805Z,1003.54
2017-06-05T07:50:02.839Z,1003.35
2017-06-05T08:00:03.356Z,1003.25
2017-06-05T08:10:03.294Z,1003.33
2017-06-05T08:20:03.370Z,1003.38
2017-06-05T08:30:02.835Z,1003.34
2017-06-05T08:40:02.915Z,1003.13
2017-06-05T08:50:03.055Z,1003.25
2017-06-05T09:00:02.546Z,1003.18
2017-06-05T09:10:03.175Z,1003.01
2017-06-05T09:20:02.456Z,1002.96
2017-06-05T09:30:02.921Z,1002.78
2017-06-05T09:40:02.352Z,1002.84
2017-06-05T09:50:02.443Z,1002.64
2017-06-05T10:00:02.913Z,1002.65
2017-06-05T10:10:02.906Z,1002.62
2017-06-05T10:20:02.673Z,1002.69
2017-06-05T10:30:03.115Z,1002.68
2017-06-05T10:40:03.298Z,1002.44
2017-06-05T10:50:03.084Z,1002.36
2017-06-05T11:00:02.551Z,1002.3
2017-06-05T11:10:03.296Z,1002.12
2017-06-05T11:20:03.159Z,1001.96
2017-06-05T11:30:02.643Z,1001.91
2017-06-05T11:40:03.171Z,1001.92
2017-06-05T11:50:02.452Z,1001.81
2017-06-05T12:00:02.906Z,1001.7
2017-06-05T12:10:02.615Z,1001.78
2017-06-05T12:20:03.219Z,1001.75
2017-06-05T12:30:02.644Z,1001.67
2017-06-05T12:40:03.270Z,1001.6
2017-06-05T12:50:02.820Z,1001.53
2017-06-05T13:00:03.293Z,1001.38
2017-06-05T13:10:02.810Z,1001.32
2017-06-05T13:20:03.362Z,1001.2
2017-06-05T13:30:02.827Z,1001.08
2017-06-05T13:40:03.137Z,1001.05
2017-06-05T13:50:02.734Z,1000.95
2017-06-05T14:00:03.145Z,1000.96
2017-06-05T14:10:03.351Z,1000.63
2017-06-05T14:20:03.289Z,1000.61
2017-06-05T14:30:02.753Z,1000.52
2017-06-05T14:40:02.586Z,1000.49
2017-06-05T14:50:02.704Z,1000.32
2017-06-05T15:00:03.206Z,1000.29
2017-06-05T15:10:02.663Z,1000.19
2017-06-05T15:20:02.886Z,1000.1
2017-06-05T15:30:03.306Z,1000.03
2017-06-05T15:40:02.780Z,999.89
2017-06-05T15:50:03.231Z,999.83
2017-06-05T16:00:02.692Z,999.67
2017-06-05T16:10:02.522Z,999.67
2017-06-05T16:20:03.077Z,999.6
2017-06-05T16:30:02.551Z,999.47
2017-06-05T16:40:03.015Z,999.47
2017-06-05T16:50:03.035Z,999.39
2017-06-05T17:00:02.530Z,999.32
2017-06-05T17:10:03.132Z,999.23
2017-06-05T17:20:03.090Z,999.14
2017-06-05T17:30:02.608Z,999.13
2017-06-05T17:40:03.174Z,998.99
2017-06-05T17:50:02.705Z,998.88
2017-06-05T18:00:03.195Z,998.9
2017-06-05T18:10:02.382Z,998.91
2017-06-05T18:20:03.046Z,998.93
2017-06-05T18:30:02.547Z,998.81
2017-06-05T18:40:03.041Z,998.79
2017-06-05T18:50:02.727Z,998.75
2017-06-05T19:00:03.161Z,998.79
2017-06-05T19:10:02.770Z,998.67
2017-06-05T19:20:03.033Z,998.76
2017-06-05T19:30:02.474Z,998.6
2017-06-05T19:40:02.960Z,998.61
2017-06-05T19:50:02.508Z,998.54
2017-06-05T20:00:02.959Z,998.49
2017-06-05T20:10:02.685Z,998.54
2017-06-05T20:20:02.640Z,998.45
2017-06-05T20:30:03.050Z,998.45
2017-06-05T20:40:02.585Z,998.35
2017-06-05T20:50:02.945Z,998.11
2017-06-05T21:00:02.411Z,998.2
2017-06-05T21:10:03.865Z,998.03
2017-06-05T21:20:03.062Z,997.95
2017-06-05T22:10:02.928Z,997.5
2017-06-05T22:20:02.779Z,997.31
2017-06-05T22:30:03.238Z,997.17
2017-06-05T22:40:02.809Z,997.05
2017-06-05T22:50:02.601Z,997
2017-06-05T23:00:03.036Z,996.87
2017-06-05T23:10:02.877Z,996.78
2017-06-05T23:20:02.901Z,996.69
2017-06-05T23:30:02.422Z,996.64
2017-06-05T23:40:02.863Z,996.43
2017-06-05T23:50:03.160Z,996.38
